createdAt,value
2023-02-15T00:00:18.590Z,99120.75
2023-02-15T00:02:46.879Z,99129.19
2023-02-15T00:05:15.144Z,99119.53
2023-02-15T00:07:44.794Z,99119.41
2023-02-15T00:10:13.246Z,99123.59
2023-02-15T00:15:21.490Z,99113.00
2023-02-15T00:17:49.748Z,99115.56
2023-02-15T00:20:19.383Z,99105.91
2023-02-15T00:22:49.001Z,99111.97
2023-02-15T00:25:17.334Z,99109.34
2023-02-15T00:27:45.584Z,99102.41
2023-02-15T00:30:14.943Z,99099.75
2023-02-15T00:32:43.263Z,99097.94
2023-02-15T00:35:11.701Z,99092.56
2023-02-15T00:37:40.030Z,99096.75
2023-02-15T00:40:11.437Z,99101.94
2023-02-15T00:42:39.707Z,99101.00
2023-02-15T00:45:09.235Z,99099.25
2023-02-15T00:47:37.564Z,99101.88
2023-02-15T00:50:07.432Z,99097.56
2023-02-15T00:52:35.669Z,99096.75
2023-02-15T00:55:03.909Z,99094.25
2023-02-15T00:57:33.492Z,99098.75
2023-02-15T01:00:01.696Z,99093.72
2023-02-15T01:02:30.349Z,99096.38
2023-02-15T01:04:58.588Z,99095.69
2023-02-15T01:07:26.872Z,99095.81
2023-02-15T01:09:55.134Z,99089.69
2023-02-15T01:12:23.393Z,99088.88
2023-02-15T01:14:52.997Z,99086.25
2023-02-15T01:17:21.214Z,99083.47
2023-02-15T01:19:49.754Z,99082.66
2023-02-15T01:22:18.005Z,99073.81
2023-02-15T01:24:46.501Z,99067.72
2023-02-15T01:27:14.716Z,99068.47
2023-02-15T01:29:42.935Z,99075.38
2023-02-15T01:32:12.573Z,99064.09
2023-02-15T01:34:40.805Z,99060.66
2023-02-15T01:37:09.055Z,99056.31
2023-02-15T01:39:37.304Z,99059.69
2023-02-15T01:42:05.828Z,99057.94
2023-02-15T01:44:59.090Z,99046.66
2023-02-15T01:47:36.118Z,99051.97
2023-02-15T01:50:12.395Z,99053.81
2023-02-15T01:52:48.792Z,99053.81
2023-02-15T01:55:18.042Z,99047.72
2023-02-15T01:57:48.650Z,99042.53
2023-02-15T02:00:18.598Z,99043.41
2023-02-15T02:02:51.077Z,99027.91
2023-02-15T02:05:19.785Z,99027.72
2023-02-15T02:07:51.017Z,99033.88
2023-02-15T02:10:21.425Z,99028.63
2023-02-15T02:12:54.610Z,99024.28
2023-02-15T02:15:32.469Z,99014.69
2023-02-15T02:18:20.013Z,99012.06
2023-02-15T02:21:23.634Z,99001.66
2023-02-15T02:24:40.910Z,98999.97
2023-02-15T02:27:32.014Z,98998.38
2023-02-15T02:30:46.620Z,99001.91
2023-02-15T02:33:53.880Z,98997.66
2023-02-15T02:36:32.468Z,98994.19
2023-02-15T02:39:24.770Z,98991.50
2023-02-15T02:42:00.906Z,98984.53
2023-02-15T02:44:37.534Z,98991.31
2023-02-15T02:47:12.431Z,98985.34
2023-02-15T02:49:44.305Z,98991.31
2023-02-15T02:52:41.878Z,99000.03
2023-02-15T02:55:16.477Z,98998.25
2023-02-15T02:57:54.766Z,98992.19
2023-02-15T03:00:25.437Z,98998.19
2023-02-15T03:02:59.489Z,98999.06
2023-02-15T03:05:31.878Z,98992.13
2023-02-15T03:08:06.931Z,98996.44
2023-02-15T03:10:37.999Z,98996.38
2023-02-15T03:13:06.357Z,98985.97
2023-02-15T03:15:56.928Z,98989.28
2023-02-15T03:18:30.615Z,98983.16
2023-02-15T03:21:03.852Z,98978.75
2023-02-15T03:23:34.440Z,98979.56
2023-02-15T03:26:05.731Z,98980.41
2023-02-15T03:28:38.748Z,98977.81
2023-02-15T03:31:09.935Z,98978.63
2023-02-15T03:33:44.644Z,98976.00
2023-02-15T03:36:21.639Z,98976.94
2023-02-15T03:39:00.230Z,98987.34
2023-02-15T03:41:36.252Z,98989.97
2023-02-15T03:44:11.776Z,98988.28
2023-02-15T03:46:47.511Z,98987.47
2023-02-15T03:49:23.380Z,98983.88
2023-02-15T03:51:57.005Z,98984.72
2023-02-15T03:54:44.227Z,98982.03
2023-02-15T03:57:33.719Z,98981.19
2023-02-15T04:00:22.320Z,98985.53
2023-02-15T04:03:11.890Z,98985.59
2023-02-15T04:05:40.936Z,98974.19
2023-02-15T04:08:11.825Z,98985.47
2023-02-15T04:10:54.345Z,98983.59
2023-02-15T04:13:23.323Z,98979.28
2023-02-15T04:16:07.120Z,98984.34
2023-02-15T04:18:56.242Z,98984.34
2023-02-15T04:21:44.232Z,98993.13
2023-02-15T04:24:32.164Z,98989.69
2023-02-15T04:27:01.320Z,98981.00
2023-02-15T04:29:30.893Z,98978.31
2023-02-15T04:32:03.519Z,98983.53
2023-02-15T04:34:31.884Z,98992.25
2023-02-15T04:37:00.135Z,98988.72
2023-02-15T04:39:29.779Z,98985.25
2023-02-15T04:41:58.056Z,98987.81
2023-02-15T04:44:26.826Z,98981.66
2023-02-15T04:46:55.813Z,98977.28
2023-02-15T04:49:24.042Z,98978.03
2023-02-15T04:51:52.298Z,98978.03
2023-02-15T04:54:20.570Z,98973.75
2023-02-15T04:56:50.167Z,98977.97
2023-02-15T04:59:18.416Z,98979.84
2023-02-15T05:01:46.650Z,98980.03
2023-02-15T05:04:15.024Z,98977.41
2023-02-15T05:06:43.383Z,98977.47
2023-02-15T05:09:15.180Z,98982.97
2023-02-15T05:11:43.442Z,98979.63
2023-02-15T05:14:13.082Z,98972.88
2023-02-15T05:16:41.590Z,98985.09
2023-02-15T05:19:10.227Z,98986.41
2023-02-15T05:21:38.548Z,98983.91
2023-02-15T05:24:28.540Z,98986.59
2023-02-15T05:27:10.651Z,98979.94
2023-02-15T05:29:40.239Z,98985.34
2023-02-15T05:32:08.618Z,98990.88
2023-02-15T05:34:36.991Z,98988.31
2023-02-15T05:37:05.204Z,99000.66
2023-02-15T05:39:33.458Z,99004.13
2023-02-15T05:42:01.880Z,98999.84
2023-02-15T05:44:30.613Z,99007.75
2023-02-15T05:47:00.167Z,99017.44
2023-02-15T05:49:28.450Z,99015.66
2023-02-15T05:51:56.748Z,99019.25
2023-02-15T05:54:24.968Z,99026.34
2023-02-15T05:56:53.170Z,99026.41
2023-02-15T05:59:21.389Z,99034.19
2023-02-15T06:01:49.592Z,99024.50
2023-02-15T06:04:19.245Z,99026.13
2023-02-15T06:06:47.620Z,99023.44
2023-02-15T06:09:19.154Z,99025.19
2023-02-15T06:11:47.723Z,99016.41
2023-02-15T06:14:15.988Z,99017.22
2023-02-15T06:16:44.215Z,99013.69
2023-02-15T06:19:12.436Z,99018.78
2023-02-15T06:21:42.045Z,99013.50
2023-02-15T06:24:11.322Z,99019.47
2023-02-15T06:26:39.530Z,99022.84
2023-02-15T06:29:07.832Z,99021.16
2023-02-15T06:31:36.183Z,99027.19
2023-02-15T06:34:04.568Z,99029.69
2023-02-15T06:36:33.546Z,99028.81
2023-02-15T06:39:04.064Z,99033.19
2023-02-15T06:41:32.690Z,99028.81
2023-02-15T06:44:01.118Z,99027.97
2023-02-15T06:46:29.385Z,99027.13
2023-02-15T06:48:57.650Z,99023.66
2023-02-15T06:51:25.958Z,99034.97
2023-02-15T06:53:54.228Z,99031.50
2023-02-15T06:56:23.962Z,99030.63
2023-02-15T06:58:53.574Z,99031.50
2023-02-15T07:01:21.888Z,99034.97
2023-02-15T07:03:50.222Z,99033.19
2023-02-15T07:06:18.448Z,99025.34
2023-02-15T07:08:46.670Z,99022.72
2023-02-15T07:11:32.628Z,99027.97
2023-02-15T07:14:02.239Z,99028.94
2023-02-15T07:16:30.955Z,99034.16
2023-02-15T07:18:59.258Z,99036.72
2023-02-15T07:21:27.578Z,99038.41
2023-02-15T07:23:59.025Z,99039.34
2023-02-15T07:26:27.506Z,99032.34
2023-02-15T07:28:55.785Z,99023.72
2023-02-15T07:31:25.450Z,99028.94
2023-02-15T07:33:53.737Z,99017.56
2023-02-15T07:36:21.972Z,99020.16
2023-02-15T07:38:50.263Z,99021.84
2023-02-15T07:41:18.597Z,99030.44
2023-02-15T07:43:47.738Z,99026.94
2023-02-15T07:46:18.906Z,99027.06
2023-02-15T07:48:48.930Z,99028.88
2023-02-15T07:51:17.242Z,99027.13
2023-02-15T07:53:45.573Z,99022.84
2023-02-15T07:56:15.731Z,99032.53
2023-02-15T07:58:52.689Z,99029.97
2023-02-15T08:05:27.935Z,99029.78
2023-02-15T08:07:56.172Z,99034.19
2023-02-15T08:10:44.495Z,99031.50
2023-02-15T08:13:12.736Z,99027.06
2023-02-15T08:15:41.053Z,99027.78
2023-02-15T08:18:09.278Z,99024.13
2023-02-15T08:20:38.940Z,99024.94
2023-02-15T08:23:07.148Z,99023.09
2023-02-15T08:25:35.431Z,99034.28
2023-02-15T08:28:03.660Z,99031.63
2023-02-15T08:30:33.363Z,99038.59
2023-02-15T08:33:03.356Z,99039.41
2023-02-15T08:35:31.592Z,99043.72
2023-02-15T08:38:01.204Z,99043.66
2023-02-15T08:40:29.458Z,99041.03
2023-02-15T08:42:57.750Z,99040.16
2023-02-15T08:45:26.472Z,99032.22
2023-02-15T08:47:55.453Z,99034.84
2023-02-15T08:50:23.939Z,99031.25
2023-02-15T08:52:52.182Z,99039.09
2023-02-15T08:55:21.803Z,99034.78
2023-02-15T08:57:50.070Z,99032.94
2023-02-15T09:00:20.007Z,99033.00
2023-02-15T09:02:48.256Z,99026.81
2023-02-15T09:05:16.660Z,99017.19
2023-02-15T09:07:44.897Z,99021.53
2023-02-15T09:10:13.147Z,99015.38
2023-02-15T09:12:42.727Z,99012.81
2023-02-15T09:15:11.915Z,99012.81
2023-02-15T09:17:40.147Z,99008.50
2023-02-15T09:20:10.062Z,99001.50
2023-02-15T09:22:38.332Z,99000.59
2023-02-15T09:25:07.386Z,98999.00
2023-02-15T09:27:35.638Z,98996.38
2023-02-15T09:30:05.919Z,98996.44
2023-02-15T09:32:34.250Z,98982.41
2023-02-15T09:35:02.482Z,98989.34
2023-02-15T09:37:32.754Z,98990.06
2023-02-15T09:40:01.254Z,98987.47
2023-02-15T09:43:00.613Z,98985.69
2023-02-15T09:45:44.543Z,98994.38
2023-02-15T09:48:41.128Z,98997.78
2023-02-15T09:51:29.997Z,99002.22
2023-02-15T09:54:18.127Z,99014.25
2023-02-15T09:56:54.349Z,99003.75
2023-02-15T09:59:32.460Z,99015.06
2023-02-15T10:02:21.025Z,99009.78
2023-02-15T10:05:02.768Z,99007.03
2023-02-15T10:07:56.178Z,99013.00
2023-02-15T10:10:34.462Z,99019.06
2023-02-15T10:13:24.241Z,99016.38
2023-02-15T10:16:08.976Z,99010.03
2023-02-15T10:19:04.889Z,99014.25
2023-02-15T10:21:51.245Z,99009.91
2023-02-15T10:24:56.676Z,99013.25
2023-02-15T10:27:24.882Z,99005.41
2023-02-15T10:30:06.866Z,99000.97
2023-02-15T10:32:49.222Z,99004.22
2023-02-15T10:35:28.878Z,99005.16
2023-02-15T10:38:11.230Z,99001.16
2023-02-15T10:40:51.503Z,99002.72
2023-02-15T10:43:48.557Z,99000.84
2023-02-15T10:46:37.829Z,98998.22
2023-02-15T10:49:37.222Z,98996.38
2023-02-15T10:52:28.714Z,98989.44
2023-02-15T10:55:11.025Z,98988.59
2023-02-15T10:57:53.554Z,98988.59
2023-02-15T11:00:30.088Z,98984.06
2023-02-15T11:03:19.527Z,98983.34
2023-02-15T11:05:59.594Z,98976.22
2023-02-15T11:08:33.428Z,98973.47
2023-02-15T11:11:07.836Z,98976.91
2023-02-15T11:13:42.165Z,98971.66
2023-02-15T11:16:18.640Z,98966.44
2023-02-15T11:18:53.701Z,98954.09
2023-02-15T11:21:25.310Z,98952.22
2023-02-15T11:23:55.872Z,98958.16
2023-02-15T11:26:31.198Z,98953.75
2023-02-15T11:29:04.110Z,98948.41
2023-02-15T11:31:44.948Z,98945.78
2023-02-15T11:34:21.027Z,98940.41
2023-02-15T11:36:52.395Z,98939.28
2023-02-15T11:39:24.248Z,98934.97
2023-02-15T11:41:55.919Z,98929.53
2023-02-15T11:44:30.354Z,98934.56
2023-02-15T11:46:59.051Z,98920.47
2023-02-15T11:49:32.701Z,98926.44
2023-02-15T11:52:05.242Z,98922.75
2023-02-15T11:54:38.583Z,98926.13
2023-02-15T11:57:16.520Z,98919.06
2023-02-15T11:59:51.928Z,98917.13
2023-02-15T12:02:23.110Z,98912.59
2023-02-15T12:04:55.232Z,98909.78
2023-02-15T12:07:29.624Z,98909.63
2023-02-15T12:10:08.051Z,98903.31
2023-02-15T12:12:37.794Z,98898.72
2023-02-15T12:15:08.556Z,98895.25
2023-02-15T12:17:42.817Z,98892.34
2023-02-15T12:20:30.694Z,98889.41
2023-02-15T12:23:04.182Z,98879.72
2023-02-15T12:25:42.196Z,98882.88
2023-02-15T12:28:26.951Z,98878.34
2023-02-15T12:30:57.400Z,98886.06
2023-02-15T12:33:32.333Z,98881.63
2023-02-15T12:36:04.754Z,98874.81
2023-02-15T12:38:35.198Z,98878.00
2023-02-15T12:41:07.761Z,98870.03
2023-02-15T12:43:39.319Z,98862.19
2023-02-15T12:46:23.899Z,98857.56
2023-02-15T12:49:10.053Z,98860.94
2023-02-15T12:51:47.265Z,98855.72
2023-02-15T12:54:30.996Z,98845.06
2023-02-15T12:57:01.233Z,98852.09
2023-02-15T12:59:29.508Z,98836.31
2023-02-15T13:01:58.012Z,98843.16
2023-02-15T13:04:29.413Z,98840.47
2023-02-15T13:07:03.042Z,98822.78
2023-02-15T13:09:40.763Z,98826.09
2023-02-15T13:12:22.425Z,98833.25
2023-02-15T13:14:53.749Z,98822.94
2023-02-15T13:17:30.314Z,98826.56
2023-02-15T13:20:04.998Z,98828.44
2023-02-15T13:22:43.084Z,98827.56
2023-02-15T13:25:17.017Z,98816.06
2023-02-15T13:27:48.567Z,98808.06
2023-02-15T13:30:30.187Z,98815.69
2023-02-15T13:33:04.384Z,98803.34
2023-02-15T13:35:43.245Z,98799.63
2023-02-15T13:38:47.295Z,98801.19
2023-02-15T13:41:19.893Z,98797.56
2023-02-15T13:44:01.871Z,98792.25
2023-02-15T13:46:47.799Z,98788.53
2023-02-15T13:49:41.120Z,98788.38
2023-02-15T13:52:21.400Z,98790.84
2023-02-15T13:55:26.679Z,98797.78
2023-02-15T13:58:33.917Z,98794.31
2023-02-15T14:01:13.642Z,98797.78
2023-02-15T14:04:16.315Z,98794.25
2023-02-15T14:07:08.575Z,98804.88
2023-02-15T14:09:49.604Z,98807.44
2023-02-15T14:12:46.877Z,98794.25
2023-02-15T14:15:28.632Z,98792.84
2023-02-15T14:18:13.497Z,98787.44
2023-02-15T14:20:58.840Z,98778.72
2023-02-15T14:23:41.757Z,98772.72
2023-02-15T14:26:19.207Z,98770.09
2023-02-15T14:28:55.092Z,98764.91
2023-02-15T14:31:31.955Z,98769.94
2023-02-15T14:34:01.659Z,98768.00
2023-02-15T14:36:32.639Z,98767.84
2023-02-15T14:39:31.301Z,98770.22
2023-02-15T14:42:06.881Z,98774.47
2023-02-15T14:44:41.027Z,98772.50
2023-02-15T14:47:18.616Z,98781.16
2023-02-15T14:49:48.230Z,98779.16
2023-02-15T14:52:16.441Z,98784.31
2023-02-15T14:55:01.901Z,98783.38
2023-02-15T14:57:36.248Z,98785.91
2023-02-15T15:00:40.037Z,98785.75
2023-02-15T15:03:23.062Z,98779.56
2023-02-15T15:06:06.030Z,98777.72
2023-02-15T15:08:38.781Z,98778.59
2023-02-15T15:11:44.126Z,98771.44
2023-02-15T15:14:40.964Z,98774.06
2023-02-15T15:17:13.541Z,98774.94
2023-02-15T15:20:14.427Z,98774.94
2023-02-15T15:22:45.722Z,98767.91
2023-02-15T15:25:42.852Z,98769.75
2023-02-15T15:28:11.144Z,98765.47
2023-02-15T15:31:07.201Z,98760.38
2023-02-15T15:34:26.966Z,98767.47
2023-02-15T15:37:54.415Z,98765.09
2023-02-15T15:41:05.694Z,98768.13
2023-02-15T15:44:36.287Z,98767.38
2023-02-15T15:47:36.026Z,98767.59
2023-02-15T15:50:14.325Z,98764.03
2023-02-15T15:52:47.108Z,98763.03
2023-02-15T15:55:20.992Z,98762.13
2023-02-15T15:57:54.439Z,98770.81
2023-02-15T16:00:37.600Z,98774.38
2023-02-15T16:03:06.378Z,98771.75
2023-02-15T16:05:39.898Z,98772.78
2023-02-15T16:08:08.566Z,98770.97
2023-02-15T16:10:38.921Z,98768.44
2023-02-15T16:13:09.308Z,98774.53
2023-02-15T16:15:46.435Z,98772.78
2023-02-15T16:18:18.865Z,98766.75
2023-02-15T16:20:54.207Z,98766.75
2023-02-15T16:24:06.200Z,98760.78
2023-02-15T16:27:01.742Z,98769.69
2023-02-15T16:29:34.857Z,98772.63
2023-02-15T16:32:05.950Z,98768.41
2023-02-15T16:34:34.926Z,98770.31
2023-02-15T16:37:17.924Z,98779.28
2023-02-15T16:39:49.027Z,98777.72
2023-02-15T16:42:19.245Z,98789.47
2023-02-15T16:44:54.271Z,98778.97
2023-02-15T16:47:27.711Z,98772.94
2023-02-15T16:49:59.426Z,98774.66
2023-02-15T16:52:30.161Z,98778.97
2023-02-15T16:55:01.166Z,98787.63
2023-02-15T16:57:34.053Z,98783.19
2023-02-15T17:00:08.382Z,98786.59
2023-02-15T17:02:54.995Z,98789.16
2023-02-15T17:05:25.723Z,98785.81
2023-02-15T17:08:15.249Z,98794.41
2023-02-15T17:10:47.047Z,98786.44
2023-02-15T17:13:16.219Z,98788.13
2023-02-15T17:16:28.776Z,98793.31
2023-02-15T17:18:59.396Z,98791.69
2023-02-15T17:21:33.838Z,98798.72
2023-02-15T17:24:05.130Z,98796.09
2023-02-15T17:26:36.447Z,98797.72
2023-02-15T17:29:15.061Z,98800.28
2023-02-15T17:31:51.751Z,98803.72
2023-02-15T17:34:47.240Z,98808.97
2023-02-15T17:37:26.381Z,98820.25
2023-02-15T17:39:55.220Z,98820.25
2023-02-15T17:42:23.530Z,98810.59
2023-02-15T17:44:51.840Z,98824.56
2023-02-15T17:47:25.585Z,98815.84
2023-02-15T17:49:55.841Z,98813.22
2023-02-15T17:52:25.116Z,98821.19
2023-02-15T17:55:12.973Z,98817.00
2023-02-15T17:57:41.256Z,98820.78
2023-02-15T18:00:33.296Z,98825.25
2023-02-15T18:03:20.507Z,98825.47
2023-02-15T18:06:06.100Z,98830.97
2023-02-15T18:08:51.729Z,98829.50
2023-02-15T18:11:38.410Z,98838.44
2023-02-15T18:14:08.317Z,98839.66
2023-02-15T18:16:40.868Z,98824.91
2023-02-15T18:19:18.015Z,98828.47
2023-02-15T18:21:47.227Z,98825.78
2023-02-15T18:24:20.457Z,98833.66
2023-02-15T18:26:49.590Z,98813.69
2023-02-15T18:29:18.022Z,98817.91
2023-02-15T18:31:49.767Z,98824.09
2023-02-15T18:34:28.730Z,98821.78
2023-02-15T18:36:58.094Z,98818.59
2023-02-15T18:39:32.460Z,98836.94
2023-02-15T18:42:00.784Z,98822.22
2023-02-15T18:44:29.126Z,98830.16
2023-02-15T18:46:57.410Z,98832.84
2023-02-15T18:49:27.048Z,98827.69
2023-02-15T18:51:55.363Z,98822.66
2023-02-15T18:54:26.055Z,98835.53
2023-02-15T18:56:58.471Z,98832.91
2023-02-15T18:59:30.420Z,98838.16
2023-02-15T19:02:00.460Z,98838.16
2023-02-15T19:04:30.114Z,98827.69
2023-02-15T19:06:58.396Z,98833.75
2023-02-15T19:09:27.816Z,98837.31
2023-02-15T19:11:57.595Z,98824.28
2023-02-15T19:14:29.824Z,98828.59
2023-02-15T19:17:00.542Z,98828.59
2023-02-15T19:19:30.205Z,98826.75
2023-02-15T19:21:58.564Z,98822.38
2023-02-15T19:24:38.585Z,98830.97
2023-02-15T19:27:08.980Z,98832.69
2023-02-15T19:29:38.209Z,98831.84
2023-02-15T19:32:06.827Z,98827.31
2023-02-15T19:34:36.476Z,98823.19
2023-02-15T19:37:06.905Z,98833.06
2023-02-15T19:39:40.335Z,98829.66
2023-02-15T19:42:15.516Z,98830.75
2023-02-15T19:44:43.788Z,98831.66
2023-02-15T19:47:14.829Z,98838.66
2023-02-15T19:49:44.481Z,98835.13
2023-02-15T19:52:19.504Z,98838.59
2023-02-15T19:54:49.276Z,98833.34
2023-02-15T19:57:17.893Z,98831.59
2023-02-15T19:59:46.229Z,98823.75
2023-02-15T20:02:15.659Z,98824.63
2023-02-15T20:04:45.440Z,98825.66
2023-02-15T20:07:23.707Z,98819.63
2023-02-15T20:09:52.105Z,98827.47
2023-02-15T20:12:24.203Z,98828.34
2023-02-15T20:14:52.515Z,98823.97
2023-02-15T20:17:21.003Z,98828.34
2023-02-15T20:19:51.021Z,98824.38
2023-02-15T20:22:25.122Z,98824.38
2023-02-15T20:24:56.243Z,98825.38
2023-02-15T20:27:24.893Z,98821.06
2023-02-15T20:29:56.718Z,98826.22
2023-02-15T20:32:25.723Z,98826.22
2023-02-15T20:34:55.421Z,98823.53
2023-02-15T20:37:28.651Z,98821.78
2023-02-15T20:39:57.293Z,98819.09
2023-02-15T20:42:25.568Z,98812.03
2023-02-15T20:44:53.811Z,98819.91
2023-02-15T20:47:22.077Z,98826.88
2023-02-15T20:49:50.615Z,98824.25
2023-02-15T20:52:22.090Z,98822.53
2023-02-15T20:54:50.541Z,98822.53
2023-02-15T20:57:18.795Z,98820.75
2023-02-15T20:59:47.007Z,98815.44
2023-02-15T21:02:23.530Z,98807.59
2023-02-15T21:04:52.044Z,98818.84
2023-02-15T21:07:22.869Z,98818.84
2023-02-15T21:09:52.395Z,98811.81
2023-02-15T21:12:22.079Z,98816.16
2023-02-15T21:14:50.494Z,98821.41
2023-02-15T21:17:19.104Z,98822.22
2023-02-15T21:19:47.400Z,98814.44
2023-02-15T21:22:17.122Z,98816.31
2023-02-15T21:24:51.668Z,98811.81
2023-02-15T21:27:20.358Z,98820.56
2023-02-15T21:29:48.635Z,98817.00
2023-02-15T21:32:17.034Z,98820.56
2023-02-15T21:34:45.424Z,98813.69
2023-02-15T21:37:32.057Z,98817.28
2023-02-15T21:40:02.752Z,98817.28
2023-02-15T21:42:48.492Z,98818.22
2023-02-15T21:45:35.494Z,98817.44
2023-02-15T21:48:03.977Z,98817.78
2023-02-15T21:50:49.798Z,98815.19
2023-02-15T21:53:25.355Z,98819.69
2023-02-15T21:55:58.640Z,98819.75
2023-02-15T21:58:29.358Z,98816.34
2023-02-15T22:00:59.623Z,98816.44
2023-02-15T22:03:32.245Z,98817.44
2023-02-15T22:06:00.592Z,98820.19
2023-02-15T22:08:29.282Z,98827.25
2023-02-15T22:10:59.183Z,98831.09
2023-02-15T22:13:30.834Z,98833.84
2023-02-15T22:15:59.999Z,98831.31
2023-02-15T22:18:33.351Z,98833.06
2023-02-15T22:21:03.614Z,98821.75
2023-02-15T22:23:32.474Z,98822.59
2023-02-15T22:26:06.486Z,98814.88
2023-02-15T22:28:38.298Z,98812.19
2023-02-15T22:31:13.283Z,98814.03
2023-02-15T22:33:41.732Z,98811.34
2023-02-15T22:36:24.820Z,98807.09
2023-02-15T22:38:53.740Z,98804.41
2023-02-15T22:41:24.739Z,98803.50
2023-02-15T22:43:53.110Z,98793.94
2023-02-15T22:46:25.461Z,98799.09
2023-02-15T22:48:54.437Z,98799.97
2023-02-15T22:51:25.361Z,98796.47
2023-02-15T22:53:54.054Z,98793.84
2023-02-15T22:56:29.563Z,98801.72
2023-02-15T22:59:05.508Z,98790.41
2023-02-15T23:01:37.182Z,98788.00
2023-02-15T23:04:05.881Z,98795.94
2023-02-15T23:06:35.370Z,98792.66
2023-02-15T23:09:03.665Z,98791.75
2023-02-15T23:11:33.325Z,98801.38
2023-02-15T23:14:03.040Z,98797.97
2023-02-15T23:16:31.901Z,98799.66
2023-02-15T23:19:00.205Z,98798.03
2023-02-15T23:21:32.003Z,98801.59
2023-02-15T23:24:18.992Z,98799.03
2023-02-15T23:26:50.556Z,98799.03
2023-02-15T23:29:22.337Z,98782.47
2023-02-15T23:31:53.427Z,98788.00
2023-02-15T23:34:28.628Z,98793.34
2023-02-15T23:36:57.874Z,98790.94
2023-02-15T23:39:45.919Z,98794.56
2023-02-15T23:42:19.905Z,98796.31
2023-02-15T23:44:49.658Z,98794.63
2023-02-15T23:47:42.640Z,98800.69
2023-02-15T23:50:19.074Z,98798.28
2023-02-15T23:52:47.407Z,98797.38
2023-02-15T23:55:17.005Z,98789.47
2023-02-15T23:57:47.522Z,98797.38
